ENSO/SRP METAR and TAF weather

Enter ICAO airport designator
Station Type Date Time Source
ENSO METAR 2021/02/26 12:20 UTC NOAA

ENSO 261220Z 33005KT 290V350 9999 BKN008 07/06 Q1027


Station Type Date Time Source
ENSO Decoded METAR 2021/02/26 12:20 UTC NOAA

Stord / Soerstokken, Norway (ENSO) 59-48N 005-21E
Feb 26, 2021 - 07:20 AM EST / 2021.02.26 1220 UTC
Wind: from the NNW (330 degrees) at 6 MPH (5 KT) (direction variable):0
Visibility: greater than 7 mile(s):0
Sky conditions: mostly cloudy
Temperature: 44 F (7 C)
Dew Point: 42 F (6 C)
Relative Humidity: 93%
Pressure (altimeter): 30.33 in. Hg (1027 hPa)
ob: ENSO 261220Z 33005KT 290V350 9999 BKN008 07/06 Q1027
cycle: 12

Station Type Date Time Source
ENSO TAF UTC NOAA

Error!

Example: see airport list